LTU1152 KLAX-EDDL
Flight info
| Callsign | LTU1152 |
|---|---|
| Flight time | N/A |
| Altitude | 34000 |
| Route | GMN7 EHF J5 FMG/N0485F330 J7 REO/N0486F340 J537 MLP/N0485F350 J540 YQL Q896 MEETO Q959 YVC J540 YZS/N0481F370 DCT 65N079W 67N067W/M084F370 69N053W 69N043W 67N029W/M085F390 65N017W 63N011W DCT OSBON/N0484F390 DCT MOCHA/N0484F410 DCT FORTY DCT GIBSU DCT SUTEB DCT PIPQU DCT PISAP PISAP1A |
| Aircraft | MD11/H-SDE1E2E3FGHIJ2J3J4J5M1RWXY/LB1D1 |
Departure
| Time | 2026-04-25 22:49 |
|---|---|
| Airport | Los Angeles International Airport (KLAX) |
Arrival
| Time | N/A |
|---|---|
| Airport | Düsseldorf Airport (EDDL) |
| Time | Latitude | Longitude | Altitude | Speed | Heading |
|---|---|---|---|---|---|
| 2026-04-25 22:02 | 33.94177 | -118.41100 | 133 ft | 0 kts | 82° |
| 2026-04-25 22:05 | 33.94177 | -118.41101 | 133 ft | 0 kts | 82° |
| 2026-04-25 22:16 | 33.94177 | -118.41102 | 133 ft | 0 kts | 82° |
| 2026-04-25 22:30 | 33.94177 | -118.41103 | 133 ft | 0 kts | 82° |
| 2026-04-25 22:34 | 33.94176 | -118.41109 | 133 ft | 4 kts | 82° |
| 2026-04-25 22:34 | 33.94173 | -118.41140 | 133 ft | 4 kts | 79° |
| 2026-04-25 22:35 | 33.94166 | -118.41170 | 131 ft | 4 kts | 56° |
| 2026-04-25 22:35 | 33.94150 | -118.41191 | 130 ft | 4 kts | 24° |
| 2026-04-25 22:35 | 33.94125 | -118.41199 | 128 ft | 4 kts | 359° |
| 2026-04-25 22:35 | 33.94105 | -118.41197 | 133 ft | 0 kts | 353° |
| 2026-04-25 22:36 | 33.94126 | -118.41200 | 127 ft | 4 kts | 353° |
| 2026-04-25 22:36 | 33.94148 | -118.41203 | 130 ft | 0 kts | 353° |
| 2026-04-25 22:40 | 33.94171 | -118.41207 | 128 ft | 7 kts | 353° |
| 2026-04-25 22:40 | 33.94229 | -118.41215 | 131 ft | 10 kts | 352° |
| 2026-04-25 22:41 | 33.94304 | -118.41226 | 132 ft | 12 kts | 355° |
| 2026-04-25 22:41 | 33.94399 | -118.41234 | 127 ft | 15 kts | 355° |
| 2026-04-25 22:41 | 33.94511 | -118.41254 | 131 ft | 18 kts | 351° |
| 2026-04-25 22:41 | 33.94635 | -118.41275 | 131 ft | 17 kts | 353° |
| 2026-04-25 22:42 | 33.94715 | -118.41287 | 129 ft | 7 kts | 352° |
| 2026-04-25 22:42 | 33.94758 | -118.41289 | 130 ft | 5 kts | 5° |
| 2026-04-25 22:42 | 33.94786 | -118.41272 | 130 ft | 4 kts | 39° |
| 2026-04-25 22:42 | 33.94797 | -118.41251 | 127 ft | 2 kts | 65° |
| 2026-04-25 22:43 | 33.94802 | -118.41217 | 125 ft | 6 kts | 83° |
| 2026-04-25 22:43 | 33.94809 | -118.41142 | 129 ft | 12 kts | 83° |
| 2026-04-25 22:43 | 33.94821 | -118.41020 | 130 ft | 16 kts | 83° |
| 2026-04-25 22:43 | 33.94835 | -118.40890 | 131 ft | 15 kts | 83° |
| 2026-04-25 22:44 | 33.94847 | -118.40767 | 125 ft | 14 kts | 83° |
| 2026-04-25 22:44 | 33.94858 | -118.40655 | 133 ft | 13 kts | 83° |
| 2026-04-25 22:44 | 33.94868 | -118.40556 | 133 ft | 11 kts | 82° |
| 2026-04-25 22:44 | 33.94877 | -118.40474 | 125 ft | 9 kts | 82° |
| 2026-04-25 22:45 | 33.94885 | -118.40403 | 133 ft | 8 kts | 82° |
| 2026-04-25 22:45 | 33.94892 | -118.40342 | 128 ft | 7 kts | 82° |
| 2026-04-25 22:45 | 33.94898 | -118.40286 | 129 ft | 6 kts | 83° |
| 2026-04-25 22:45 | 33.94903 | -118.40234 | 125 ft | 6 kts | 83° |
| 2026-04-25 22:46 | 33.94908 | -118.40186 | 129 ft | 5 kts | 83° |
| 2026-04-25 22:46 | 33.94913 | -118.40133 | 129 ft | 8 kts | 83° |
| 2026-04-25 22:46 | 33.94919 | -118.40067 | 128 ft | 8 kts | 83° |
| 2026-04-25 22:46 | 33.94925 | -118.40008 | 129 ft | 7 kts | 83° |
| 2026-04-25 22:47 | 33.94937 | -118.39961 | 130 ft | 5 kts | 61° |
| 2026-04-25 22:47 | 33.94960 | -118.39931 | 128 ft | 4 kts | 40° |
| 2026-04-25 22:47 | 33.94987 | -118.39919 | 125 ft | 4 kts | 9° |
| 2026-04-25 22:47 | 33.95016 | -118.39926 | 128 ft | 5 kts | 340° |
| 2026-04-25 22:48 | 33.95034 | -118.39950 | 126 ft | 4 kts | 298° |
| 2026-04-25 22:48 | 33.95038 | -118.39983 | 129 ft | 4 kts | 270° |
| 2026-04-25 22:48 | 33.95034 | -118.40026 | 125 ft | 10 kts | 264° |
| 2026-04-25 22:48 | 33.95000 | -118.40369 | 133 ft | 81 kts | 262° |
| 2026-04-25 22:49 | 33.94900 | -118.41336 | 124 ft | 148 kts | 263° |
| 2026-04-25 22:49 | 33.94765 | -118.42723 | 329 ft | 174 kts | 261° |
| 2026-04-25 22:49 | 33.94643 | -118.44175 | 1052 ft | 169 kts | 262° |
| 2026-04-25 22:49 | 33.94513 | -118.45537 | 1871 ft | 167 kts | 261° |
| 2026-04-25 22:50 | 33.94377 | -118.46979 | 2348 ft | 176 kts | 264° |
| 2026-04-25 22:50 | 33.94319 | -118.48452 | 2934 ft | 173 kts | 266° |
| 2026-04-25 22:50 | 33.94266 | -118.49957 | 3355 ft | 192 kts | 265° |
| 2026-04-25 22:50 | 33.94151 | -118.51619 | 3682 ft | 203 kts | 264° |
| 2026-04-25 22:51 | 33.94017 | -118.53388 | 4063 ft | 218 kts | 263° |
| 2026-04-25 22:51 | 33.93874 | -118.55248 | 4471 ft | 228 kts | 264° |
| 2026-04-25 22:51 | 33.93725 | -118.57183 | 4869 ft | 236 kts | 264° |
| 2026-04-25 22:51 | 33.93570 | -118.59211 | 4970 ft | 252 kts | 265° |
| 2026-04-25 22:52 | 33.93617 | -118.61362 | 5230 ft | 259 kts | 279° |
| 2026-04-25 22:52 | 33.94250 | -118.63358 | 5856 ft | 264 kts | 300° |
| 2026-04-25 22:52 | 33.95559 | -118.64982 | 6463 ft | 270 kts | 322° |
| 2026-04-25 22:52 | 33.96596 | -118.65846 | 6812 ft | 276 kts | 324° |
| 2026-04-25 22:53 | 33.98821 | -118.67340 | 7272 ft | 275 kts | 340° |
| 2026-04-25 22:53 | 34.00713 | -118.67661 | 7651 ft | 278 kts | 356° |
| 2026-04-25 22:53 | 34.02684 | -118.67608 | 7949 ft | 288 kts | 0° |
| 2026-04-25 22:53 | 34.04679 | -118.67473 | 7990 ft | 286 kts | 1° |
| 2026-04-25 22:54 | 34.06678 | -118.67321 | 7990 ft | 286 kts | 2° |
| 2026-04-25 22:54 | 34.08656 | -118.67008 | 8049 ft | 291 kts | 8° |
| 2026-04-25 22:54 | 34.10615 | -118.66557 | 8786 ft | 291 kts | 8° |
| 2026-04-25 22:54 | 34.12617 | -118.66077 | 9439 ft | 293 kts | 8° |
| 2026-04-25 22:55 | 34.14652 | -118.65584 | 9992 ft | 298 kts | 8° |
| 2026-04-25 22:55 | 34.16740 | -118.65082 | 10234 ft | 318 kts | 8° |
| 2026-04-25 22:55 | 34.18984 | -118.64547 | 10400 ft | 339 kts | 8° |
| 2026-04-25 22:55 | 34.21377 | -118.63977 | 10537 ft | 360 kts | 8° |
| 2026-04-25 22:56 | 34.23909 | -118.63480 | 10671 ft | 375 kts | 359° |
| 2026-04-25 22:56 | 34.26493 | -118.63649 | 11266 ft | 375 kts | 349° |
| 2026-04-25 22:56 | 34.29087 | -118.64153 | 11867 ft | 378 kts | 345° |
| 2026-04-25 22:56 | 34.31682 | -118.64772 | 12441 ft | 383 kts | 343° |
| 2026-04-25 22:57 | 34.34320 | -118.65426 | 13015 ft | 389 kts | 343° |
| 2026-04-25 22:57 | 34.36984 | -118.66079 | 13574 ft | 394 kts | 343° |
| 2026-04-25 22:57 | 34.39693 | -118.66728 | 14202 ft | 395 kts | 344° |
| 2026-04-25 22:57 | 34.42395 | -118.67352 | 14832 ft | 398 kts | 345° |
| 2026-04-25 22:58 | 34.45140 | -118.67931 | 15352 ft | 403 kts | 346° |
| 2026-04-25 22:58 | 34.47938 | -118.68488 | 15849 ft | 408 kts | 346° |
| 2026-04-25 22:58 | 34.50729 | -118.69033 | 16357 ft | 412 kts | 346° |
| 2026-04-25 22:58 | 34.53575 | -118.69585 | 16865 ft | 417 kts | 346° |
| 2026-04-25 22:59 | 34.56457 | -118.70146 | 17349 ft | 422 kts | 346° |
| 2026-04-25 22:59 | 34.59371 | -118.70715 | 17845 ft | 427 kts | 346° |
| 2026-04-25 22:59 | 34.62320 | -118.71291 | 18326 ft | 431 kts | 346° |
| 2026-04-25 22:59 | 34.65305 | -118.71877 | 18764 ft | 435 kts | 345° |
| 2026-04-25 23:00 | 34.68315 | -118.72469 | 19194 ft | 439 kts | 345° |
| 2026-04-25 23:00 | 34.71299 | -118.73105 | 19584 ft | 440 kts | 340° |
| 2026-04-25 23:00 | 34.74170 | -118.74323 | 20053 ft | 432 kts | 329° |
| 2026-04-25 23:00 | 34.76840 | -118.75976 | 20494 ft | 430 kts | 323° |
| 2026-04-25 23:01 | 34.79415 | -118.77798 | 20899 ft | 433 kts | 322° |
| 2026-04-25 23:01 | 34.82033 | -118.79717 | 21339 ft | 436 kts | 321° |
| 2026-04-25 23:01 | 34.84617 | -118.81597 | 21788 ft | 439 kts | 322° |
| 2026-04-25 23:01 | 34.87262 | -118.83491 | 22219 ft | 442 kts | 322° |
| 2026-04-25 23:02 | 34.89938 | -118.85381 | 22659 ft | 445 kts | 322° |
| 2026-04-25 23:02 | 34.92632 | -118.87264 | 23077 ft | 449 kts | 322° |
| 2026-04-25 23:02 | 34.95363 | -118.89165 | 23501 ft | 452 kts | 322° |
| 2026-04-25 23:02 | 34.98103 | -118.91070 | 23857 ft | 454 kts | 322° |
| 2026-04-25 23:03 | 35.00856 | -118.92983 | 24216 ft | 457 kts | 322° |
| 2026-04-25 23:03 | 35.03634 | -118.94916 | 24567 ft | 459 kts | 322° |
| 2026-04-25 23:03 | 35.06380 | -118.96829 | 24915 ft | 463 kts | 323° |
| 2026-04-25 23:03 | 35.09221 | -118.98810 | 25254 ft | 465 kts | 323° |
| 2026-04-25 23:04 | 35.11998 | -119.00747 | 25604 ft | 467 kts | 323° |
| 2026-04-25 23:04 | 35.13914 | -119.02085 | 25846 ft | 468 kts | 323° |
| 2026-04-25 23:04 | 35.17675 | -119.04712 | 26292 ft | 471 kts | 323° |
| 2026-04-25 23:04 | 35.20532 | -119.06711 | 26651 ft | 473 kts | 323° |
| 2026-04-25 23:05 | 35.23400 | -119.08719 | 26991 ft | 475 kts | 323° |
| 2026-04-25 23:05 | 35.26286 | -119.10741 | 27327 ft | 477 kts | 323° |
| 2026-04-25 23:05 | 35.29170 | -119.12764 | 27652 ft | 480 kts | 323° |
| 2026-04-25 23:05 | 35.32078 | -119.14805 | 27985 ft | 482 kts | 323° |
| 2026-04-25 23:06 | 35.34993 | -119.16853 | 28300 ft | 484 kts | 323° |
| 2026-04-25 23:06 | 35.37886 | -119.18888 | 28597 ft | 486 kts | 323° |
| 2026-04-25 23:06 | 35.40828 | -119.20950 | 28946 ft | 488 kts | 324° |
| 2026-04-25 23:06 | 35.43902 | -119.22790 | 29216 ft | 497 kts | 333° |
| 2026-04-25 23:07 | 35.47264 | -119.23957 | 29526 ft | 508 kts | 345° |
| 2026-04-25 23:07 | 35.50805 | -119.24512 | 29791 ft | 515 kts | 351° |
| 2026-04-25 23:07 | 35.54396 | -119.24771 | 30062 ft | 519 kts | 353° |
| 2026-04-25 23:07 | 35.58031 | -119.24956 | 30312 ft | 522 kts | 353° |
| 2026-04-25 23:08 | 35.61610 | -119.25165 | 30647 ft | 521 kts | 352° |
| 2026-04-25 23:08 | 35.65241 | -119.25426 | 30918 ft | 521 kts | 352° |
| 2026-04-25 23:08 | 35.68857 | -119.25735 | 31219 ft | 520 kts | 351° |
| 2026-04-25 23:08 | 35.72483 | -119.26078 | 31522 ft | 520 kts | 351° |
| 2026-04-25 23:09 | 35.76076 | -119.26436 | 31815 ft | 519 kts | 351° |
| 2026-04-25 23:09 | 35.79680 | -119.26801 | 32103 ft | 518 kts | 351° |
| 2026-04-25 23:09 | 35.83230 | -119.27160 | 32435 ft | 516 kts | 351° |
| 2026-04-25 23:09 | 35.86805 | -119.27520 | 32724 ft | 515 kts | 351° |
| 2026-04-25 23:10 | 35.90386 | -119.27879 | 32996 ft | 514 kts | 351° |
| 2026-04-25 23:10 | 35.93959 | -119.28236 | 33259 ft | 514 kts | 351° |
| 2026-04-25 23:10 | 35.97525 | -119.28591 | 33520 ft | 513 kts | 351° |
| 2026-04-25 23:10 | 36.01089 | -119.28947 | 33756 ft | 513 kts | 351° |
| 2026-04-25 23:11 | 36.04600 | -119.29297 | 34003 ft | 511 kts | 351° |
| 2026-04-25 23:11 | 36.08143 | -119.29651 | 34188 ft | 511 kts | 351° |
| 2026-04-25 23:11 | 36.11699 | -119.30007 | 34362 ft | 510 kts | 351° |
| 2026-04-25 23:11 | 36.15233 | -119.30361 | 34521 ft | 510 kts | 351° |
| 2026-04-25 23:12 | 36.18789 | -119.30718 | 34696 ft | 510 kts | 351° |
| 2026-04-25 23:12 | 36.22326 | -119.31072 | 34863 ft | 510 kts | 351° |
| 2026-04-25 23:12 | 36.29430 | -119.31789 | 34898 ft | 515 kts | 351° |
| 2026-04-25 23:13 | 36.36560 | -119.32510 | 34899 ft | 518 kts | 351° |
| 2026-04-25 23:13 | 36.43738 | -119.33234 | 34918 ft | 516 kts | 352° |
| 2026-04-25 23:14 | 36.50892 | -119.33955 | 34904 ft | 515 kts | 352° |
| 2026-04-25 23:14 | 36.58050 | -119.34679 | 34898 ft | 515 kts | 352° |
| 2026-04-25 23:15 | 36.65201 | -119.35405 | 34906 ft | 515 kts | 352° |
| 2026-04-25 23:15 | 36.72296 | -119.36125 | 34902 ft | 514 kts | 352° |
| 2026-04-25 23:16 | 36.79416 | -119.36850 | 34904 ft | 514 kts | 352° |
| 2026-04-25 23:16 | 36.86564 | -119.37580 | 34906 ft | 515 kts | 352° |
| 2026-04-25 23:17 | 36.93703 | -119.38308 | 34898 ft | 513 kts | 352° |
| 2026-04-25 23:17 | 37.00791 | -119.39033 | 34901 ft | 514 kts | 352° |
| 2026-04-25 23:18 | 37.06726 | -119.39642 | 34935 ft | 514 kts | 352° |
| 2026-04-25 23:18 | 37.13883 | -119.40378 | 34900 ft | 516 kts | 352° |
| 2026-04-25 23:19 | 37.21052 | -119.41119 | 34902 ft | 517 kts | 352° |
| 2026-04-25 23:19 | 37.28225 | -119.41859 | 34906 ft | 517 kts | 352° |
| 2026-04-25 23:20 | 37.35350 | -119.42595 | 34898 ft | 516 kts | 352° |
| 2026-04-25 23:20 | 37.42515 | -119.43337 | 34894 ft | 516 kts | 352° |
| 2026-04-25 23:21 | 37.49626 | -119.44074 | 34887 ft | 515 kts | 352° |
| 2026-04-25 23:21 | 37.56765 | -119.44814 | 34879 ft | 514 kts | 352° |
| 2026-04-25 23:22 | 37.63904 | -119.45558 | 34870 ft | 514 kts | 352° |
| 2026-04-25 23:23 | 37.74559 | -119.46669 | 34854 ft | 512 kts | 352° |
| 2026-04-25 23:23 | 37.81679 | -119.47414 | 34845 ft | 512 kts | 352° |
| 2026-04-25 23:24 | 37.88804 | -119.48161 | 34870 ft | 513 kts | 352° |
| 2026-04-25 23:24 | 37.95878 | -119.48903 | 34846 ft | 512 kts | 351° |
| 2026-04-25 23:25 | 38.02980 | -119.49654 | 34854 ft | 511 kts | 351° |
| 2026-04-25 23:25 | 38.10089 | -119.50405 | 34847 ft | 512 kts | 351° |
| 2026-04-25 23:26 | 38.17154 | -119.51151 | 34822 ft | 511 kts | 351° |
| 2026-04-25 23:26 | 38.24253 | -119.51903 | 34811 ft | 511 kts | 351° |
| 2026-04-25 23:27 | 38.31295 | -119.52649 | 34796 ft | 510 kts | 351° |
| 2026-04-25 23:27 | 38.38373 | -119.53401 | 34783 ft | 510 kts | 351° |
| 2026-04-25 23:28 | 38.45462 | -119.54157 | 34768 ft | 510 kts | 351° |
| 2026-04-25 23:28 | 38.52501 | -119.54908 | 34755 ft | 509 kts | 352° |
| 2026-04-25 23:29 | 38.59564 | -119.55661 | 34742 ft | 509 kts | 352° |